sensor_id;sensor_type;location;lat;lon;timestamp;temperature;humidity
37232;DHT22;23125;48.156;15.954;2022-09-03T00:07:53;16.10;54.80
37232;DHT22;23125;48.156;15.954;2022-09-03T00:10:31;16.10;54.80
37232;DHT22;23125;48.156;15.954;2022-09-03T00:13:03;16.10;55.00
37232;DHT22;23125;48.156;15.954;2022-09-03T00:15:32;16.10;55.00
37232;DHT22;23125;48.156;15.954;2022-09-03T00:18:09;16.10;55.10
37232;DHT22;23125;48.156;15.954;2022-09-03T00:20:45;16.10;55.10
37232;DHT22;23125;48.156;15.954;2022-09-03T00:23:22;16.00;55.10
37232;DHT22;23125;48.156;15.954;2022-09-03T00:26:17;16.00;55.20
37232;DHT22;23125;48.156;15.954;2022-09-03T00:28:56;16.00;55.20
37232;DHT22;23125;48.156;15.954;2022-09-03T00:31:37;16.00;55.30
37232;DHT22;23125;48.156;15.954;2022-09-03T00:34:20;15.90;55.30
37232;DHT22;23125;48.156;15.954;2022-09-03T00:36:48;15.90;55.30
37232;DHT22;23125;48.156;15.954;2022-09-03T00:39:17;15.90;55.30
37232;DHT22;23125;48.156;15.954;2022-09-03T00:42:02;15.90;55.40
37232;DHT22;23125;48.156;15.954;2022-09-03T01:00:30;15.60;55.60
37232;DHT22;23125;48.156;15.954;2022-09-03T01:08:23;15.50;55.80
37232;DHT22;23125;48.156;15.954;2022-09-03T01:14:11;15.50;55.90
37232;DHT22;23125;48.156;15.954;2022-09-03T01:16:57;15.40;55.90
37232;DHT22;23125;48.156;15.954;2022-09-03T01:25:43;15.30;56.20
37232;DHT22;23125;48.156;15.954;2022-09-03T01:28:37;15.30;56.30
37232;DHT22;23125;48.156;15.954;2022-09-03T01:42:24;15.20;56.60
37232;DHT22;23125;48.156;15.954;2022-09-03T01:48:00;15.20;56.80
37232;DHT22;23125;48.156;15.954;2022-09-03T01:50:38;15.20;56.80
37232;DHT22;23125;48.156;15.954;2022-09-03T01:58:40;15.10;57.00
37232;DHT22;23125;48.156;15.954;2022-09-03T02:01:21;15.10;57.10
37232;DHT22;23125;48.156;15.954;2022-09-03T02:03:48;15.00;57.10
37232;DHT22;23125;48.156;15.954;2022-09-03T02:06:16;15.10;57.20
37232;DHT22;23125;48.156;15.954;2022-09-03T02:08:45;15.00;57.30
37232;DHT22;23125;48.156;15.954;2022-09-03T02:11:11;15.00;57.30
37232;DHT22;23125;48.156;15.954;2022-09-03T02:13:41;15.00;57.30
37232;DHT22;23125;48.156;15.954;2022-09-03T02:16:14;15.00;57.30
37232;DHT22;23125;48.156;15.954;2022-09-03T02:18:45;15.00;57.40
37232;DHT22;23125;48.156;15.954;2022-09-03T02:21:14;15.00;57.40
37232;DHT22;23125;48.156;15.954;2022-09-03T02:23:41;15.00;57.40
37232;DHT22;23125;48.156;15.954;2022-09-03T02:26:10;15.00;57.50
37232;DHT22;23125;48.156;15.954;2022-09-03T02:28:36;15.00;57.50
37232;DHT22;23125;48.156;15.954;2022-09-03T02:31:03;15.00;57.60
37232;DHT22;23125;48.156;15.954;2022-09-03T02:33:31;14.90;57.60
37232;DHT22;23125;48.156;15.954;2022-09-03T02:35:59;14.90;57.70
37232;DHT22;23125;48.156;15.954;2022-09-03T02:38:26;14.90;57.70
37232;DHT22;23125;48.156;15.954;2022-09-03T02:40:53;14.90;57.80
37232;DHT22;23125;48.156;15.954;2022-09-03T02:46:00;14.80;57.70
37232;DHT22;23125;48.156;15.954;2022-09-03T02:48:27;14.80;57.80
37232;DHT22;23125;48.156;15.954;2022-09-03T02:50:53;14.80;57.60
37232;DHT22;23125;48.156;15.954;2022-09-03T02:53:19;14.80;57.60
37232;DHT22;23125;48.156;15.954;2022-09-03T02:55:45;14.80;57.70
37232;DHT22;23125;48.156;15.954;2022-09-03T02:58:11;14.70;57.70
37232;DHT22;23125;48.156;15.954;2022-09-03T03:00:37;14.70;57.70
37232;DHT22;23125;48.156;15.954;2022-09-03T03:03:04;14.70;57.80
37232;DHT22;23125;48.156;15.954;2022-09-03T03:05:52;14.70;57.70
37232;DHT22;23125;48.156;15.954;2022-09-03T03:08:21;14.70;57.80
37232;DHT22;23125;48.156;15.954;2022-09-03T03:10:52;14.70;57.90
37232;DHT22;23125;48.156;15.954;2022-09-03T03:13:18;14.60;57.80
37232;DHT22;23125;48.156;15.954;2022-09-03T03:15:44;14.60;57.90
37232;DHT22;23125;48.156;15.954;2022-09-03T03:18:12;14.60;57.90
37232;DHT22;23125;48.156;15.954;2022-09-03T03:20:40;14.60;57.90
37232;DHT22;23125;48.156;15.954;2022-09-03T03:23:07;14.50;58.00
37232;DHT22;23125;48.156;15.954;2022-09-03T03:25:37;14.60;58.00
37232;DHT22;23125;48.156;15.954;2022-09-03T03:28:04;14.50;58.00
37232;DHT22;23125;48.156;15.954;2022-09-03T03:30:31;14.50;58.10
37232;DHT22;23125;48.156;15.954;2022-09-03T03:32:57;14.50;58.10
37232;DHT22;23125;48.156;15.954;2022-09-03T03:35:24;14.40;58.10
37232;DHT22;23125;48.156;15.954;2022-09-03T03:37:50;14.50;58.20
37232;DHT22;23125;48.156;15.954;2022-09-03T03:40:16;14.40;58.20
37232;DHT22;23125;48.156;15.954;2022-09-03T03:42:42;14.40;58.20
37232;DHT22;23125;48.156;15.954;2022-09-03T03:45:09;14.40;58.20
37232;DHT22;23125;48.156;15.954;2022-09-03T03:47:35;14.40;58.20
37232;DHT22;23125;48.156;15.954;2022-09-03T03:50:03;14.40;58.20
37232;DHT22;23125;48.156;15.954;2022-09-03T03:52:29;14.30;58.30
37232;DHT22;23125;48.156;15.954;2022-09-03T03:54:55;14.30;58.30
37232;DHT22;23125;48.156;15.954;2022-09-03T03:57:22;14.30;58.30
37232;DHT22;23125;48.156;15.954;2022-09-03T03:59:48;14.30;58.30
37232;DHT22;23125;48.156;15.954;2022-09-03T04:02:17;14.30;58.30
37232;DHT22;23125;48.156;15.954;2022-09-03T04:04:43;14.30;58.30
37232;DHT22;23125;48.156;15.954;2022-09-03T04:07:09;14.20;58.30
37232;DHT22;23125;48.156;15.954;2022-09-03T04:09:35;14.20;58.30
37232;DHT22;23125;48.156;15.954;2022-09-03T04:12:02;14.20;58.30
37232;DHT22;23125;48.156;15.954;2022-09-03T04:14:28;14.20;58.40
37232;DHT22;23125;48.156;15.954;2022-09-03T04:16:54;14.20;58.50
37232;DHT22;23125;48.156;15.954;2022-09-03T04:19:21;14.10;58.60
37232;DHT22;23125;48.156;15.954;2022-09-03T04:21:47;14.10;58.60
37232;DHT22;23125;48.156;15.954;2022-09-03T04:24:13;14.10;58.60
37232;DHT22;23125;48.156;15.954;2022-09-03T04:26:38;14.10;58.70
37232;DHT22;23125;48.156;15.954;2022-09-03T04:29:07;14.00;58.70
37232;DHT22;23125;48.156;15.954;2022-09-03T04:31:35;14.00;58.80
37232;DHT22;23125;48.156;15.954;2022-09-03T04:34:01;14.00;58.80
37232;DHT22;23125;48.156;15.954;2022-09-03T04:36:29;14.00;58.90
37232;DHT22;23125;48.156;15.954;2022-09-03T04:38:58;13.90;58.90
37232;DHT22;23125;48.156;15.954;2022-09-03T04:41:28;14.00;59.00
37232;DHT22;23125;48.156;15.954;2022-09-03T04:43:56;14.00;59.10
37232;DHT22;23125;48.156;15.954;2022-09-03T04:46:25;14.00;59.10
37232;DHT22;23125;48.156;15.954;2022-09-03T04:48:58;14.00;59.10
37232;DHT22;23125;48.156;15.954;2022-09-03T04:51:26;14.00;59.20
37232;DHT22;23125;48.156;15.954;2022-09-03T04:53:56;14.00;59.30
37232;DHT22;23125;48.156;15.954;2022-09-03T04:56:29;14.00;59.30
37232;DHT22;23125;48.156;15.954;2022-09-03T04:59:00;14.00;59.30
37232;DHT22;23125;48.156;15.954;2022-09-03T05:01:28;14.00;59.30
37232;DHT22;23125;48.156;15.954;2022-09-03T05:03:55;14.00;59.30
37232;DHT22;23125;48.156;15.954;2022-09-03T05:06:23;14.00;59.30
37232;DHT22;23125;48.156;15.954;2022-09-03T05:08:51;14.00;59.40
37232;DHT22;23125;48.156;15.954;2022-09-03T05:11:18;14.00;59.40
37232;DHT22;23125;48.156;15.954;2022-09-03T05:13:47;14.00;59.40
37232;DHT22;23125;48.156;15.954;2022-09-03T05:16:14;14.10;60.10
37232;DHT22;23125;48.156;15.954;2022-09-03T05:18:40;14.10;59.70
37232;DHT22;23125;48.156;15.954;2022-09-03T05:21:11;14.10;59.80
37232;DHT22;23125;48.156;15.954;2022-09-03T05:23:40;14.10;59.80
37232;DHT22;23125;48.156;15.954;2022-09-03T05:26:09;14.10;59.90
37232;DHT22;23125;48.156;15.954;2022-09-03T05:28:37;14.20;60.10
37232;DHT22;23125;48.156;15.954;2022-09-03T05:31:09;14.20;60.10
37232;DHT22;23125;48.156;15.954;2022-09-03T05:33:41;14.20;60.20
37232;DHT22;23125;48.156;15.954;2022-09-03T05:36:09;14.30;60.20
37232;DHT22;23125;48.156;15.954;2022-09-03T05:38:36;14.30;60.20
37232;DHT22;23125;48.156;15.954;2022-09-03T05:41:04;14.30;60.30
37232;DHT22;23125;48.156;15.954;2022-09-03T05:43:31;14.40;60.50
37232;DHT22;23125;48.156;15.954;2022-09-03T05:45:59;14.40;60.50
37232;DHT22;23125;48.156;15.954;2022-09-03T05:48:26;14.40;60.50
37232;DHT22;23125;48.156;15.954;2022-09-03T05:53:27;14.50;60.80
37232;DHT22;23125;48.156;15.954;2022-09-03T05:55:57;14.60;60.90
37232;DHT22;23125;48.156;15.954;2022-09-03T05:58:23;14.70;61.20
37232;DHT22;23125;48.156;15.954;2022-09-03T06:00:50;14.80;62.80
37232;DHT22;23125;48.156;15.954;2022-09-03T06:03:17;15.00;63.80
37232;DHT22;23125;48.156;15.954;2022-09-03T06:05:53;15.30;64.00
37232;DHT22;23125;48.156;15.954;2022-09-03T06:08:22;15.70;67.10
37232;DHT22;23125;48.156;15.954;2022-09-03T06:10:48;16.40;68.60
37232;DHT22;23125;48.156;15.954;2022-09-03T06:13:14;17.00;69.20
37232;DHT22;23125;48.156;15.954;2022-09-03T06:15:39;17.60;69.10
37232;DHT22;23125;48.156;15.954;2022-09-03T06:18:05;18.30;68.70
37232;DHT22;23125;48.156;15.954;2022-09-03T06:20:31;18.90;67.80
37232;DHT22;23125;48.156;15.954;2022-09-03T06:22:58;19.60;67.00
37232;DHT22;23125;48.156;15.954;2022-09-03T06:25:23;20.20;65.80
37232;DHT22;23125;48.156;15.954;2022-09-03T06:27:50;20.70;64.80
37232;DHT22;23125;48.156;15.954;2022-09-03T06:30:16;21.30;63.60
37232;DHT22;23125;48.156;15.954;2022-09-03T06:32:46;21.90;62.20
37232;DHT22;23125;48.156;15.954;2022-09-03T06:35:12;22.40;60.90
37232;DHT22;23125;48.156;15.954;2022-09-03T06:37:39;23.00;60.10
37232;DHT22;23125;48.156;15.954;2022-09-03T06:40:06;23.50;59.30
37232;DHT22;23125;48.156;15.954;2022-09-03T06:42:33;24.10;58.20
37232;DHT22;23125;48.156;15.954;2022-09-03T06:44:59;24.70;57.30
37232;DHT22;23125;48.156;15.954;2022-09-03T06:47:27;25.20;56.10
37232;DHT22;23125;48.156;15.954;2022-09-03T06:49:53;25.80;55.00
37232;DHT22;23125;48.156;15.954;2022-09-03T06:52:19;26.30;54.10
37232;DHT22;23125;48.156;15.954;2022-09-03T06:54:44;26.80;53.20
37232;DHT22;23125;48.156;15.954;2022-09-03T06:57:10;27.20;52.20
37232;DHT22;23125;48.156;15.954;2022-09-03T06:59:36;27.60;51.20
37232;DHT22;23125;48.156;15.954;2022-09-03T07:02:02;28.00;50.30
37232;DHT22;23125;48.156;15.954;2022-09-03T07:04:28;28.30;49.30
37232;DHT22;23125;48.156;15.954;2022-09-03T07:06:54;28.60;48.70
37232;DHT22;23125;48.156;15.954;2022-09-03T07:09:20;28.90;48.00
37232;DHT22;23125;48.156;15.954;2022-09-03T07:11:46;29.30;47.50
37232;DHT22;23125;48.156;15.954;2022-09-03T07:14:13;29.70;46.80
37232;DHT22;23125;48.156;15.954;2022-09-03T07:16:39;30.10;46.10
37232;DHT22;23125;48.156;15.954;2022-09-03T07:19:07;30.40;45.60
37232;DHT22;23125;48.156;15.954;2022-09-03T07:21:35;30.80;44.60
37232;DHT22;23125;48.156;15.954;2022-09-03T07:24:01;31.20;43.80
37232;DHT22;23125;48.156;15.954;2022-09-03T07:26:30;31.40;42.70
37232;DHT22;23125;48.156;15.954;2022-09-03T07:28:56;31.70;42.10
37232;DHT22;23125;48.156;15.954;2022-09-03T07:31:37;32.00;41.60
37232;DHT22;23125;48.156;15.954;2022-09-03T07:34:06;32.30;40.90
37232;DHT22;23125;48.156;15.954;2022-09-03T07:36:43;32.60;40.10
37232;DHT22;23125;48.156;15.954;2022-09-03T07:39:12;32.80;39.40
37232;DHT22;23125;48.156;15.954;2022-09-03T07:41:40;33.10;38.90
37232;DHT22;23125;48.156;15.954;2022-09-03T07:44:11;33.30;38.40
37232;DHT22;23125;48.156;15.954;2022-09-03T07:46:38;33.60;37.80
37232;DHT22;23125;48.156;15.954;2022-09-03T07:49:05;33.80;37.20
37232;DHT22;23125;48.156;15.954;2022-09-03T07:51:36;34.10;36.60
37232;DHT22;23125;48.156;15.954;2022-09-03T07:54:05;34.30;35.80
37232;DHT22;23125;48.156;15.954;2022-09-03T07:56:33;34.60;35.50
37232;DHT22;23125;48.156;15.954;2022-09-03T07:59:01;34.90;34.90
37232;DHT22;23125;48.156;15.954;2022-09-03T08:01:29;35.10;34.40
37232;DHT22;23125;48.156;15.954;2022-09-03T08:03:59;35.30;33.70
37232;DHT22;23125;48.156;15.954;2022-09-03T08:06:27;35.50;33.30
37232;DHT22;23125;48.156;15.954;2022-09-03T08:08:55;35.70;32.60
37232;DHT22;23125;48.156;15.954;2022-09-03T08:11:24;35.90;32.40
37232;DHT22;23125;48.156;15.954;2022-09-03T08:14:03;36.00;31.70
37232;DHT22;23125;48.156;15.954;2022-09-03T08:16:44;36.20;31.50
37232;DHT22;23125;48.156;15.954;2022-09-03T08:19:12;36.40;31.20
37232;DHT22;23125;48.156;15.954;2022-09-03T08:21:40;36.60;30.90
37232;DHT22;23125;48.156;15.954;2022-09-03T08:24:07;36.70;30.40
37232;DHT22;23125;48.156;15.954;2022-09-03T08:26:35;36.80;30.20
37232;DHT22;23125;48.156;15.954;2022-09-03T08:29:03;37.10;30.10
37232;DHT22;23125;48.156;15.954;2022-09-03T08:31:30;37.30;29.90
37232;DHT22;23125;48.156;15.954;2022-09-03T08:33:58;37.40;29.60
37232;DHT22;23125;48.156;15.954;2022-09-03T08:36:28;37.60;29.40
37232;DHT22;23125;48.156;15.954;2022-09-03T08:38:56;37.80;29.10
37232;DHT22;23125;48.156;15.954;2022-09-03T08:44:47;37.90;28.80
37232;DHT22;23125;48.156;15.954;2022-09-03T08:52:47;38.20;28.20
37232;DHT22;23125;48.156;15.954;2022-09-03T08:55:34;38.30;28.20
37232;DHT22;23125;48.156;15.954;2022-09-03T08:58:12;38.30;28.00
37232;DHT22;23125;48.156;15.954;2022-09-03T09:00:59;38.30;28.00
37232;DHT22;23125;48.156;15.954;2022-09-03T09:04:04;38.40;28.10
37232;DHT22;23125;48.156;15.954;2022-09-03T09:23:03;38.70;27.20
37232;DHT22;23125;48.156;15.954;2022-09-03T09:25:37;38.70;27.20
37232;DHT22;23125;48.156;15.954;2022-09-03T09:28:20;38.50;27.00
37232;DHT22;23125;48.156;15.954;2022-09-03T09:30:48;38.40;27.40
37232;DHT22;23125;48.156;15.954;2022-09-03T09:33:15;38.40;27.40
37232;DHT22;23125;48.156;15.954;2022-09-03T09:35:43;38.40;27.20
37232;DHT22;23125;48.156;15.954;2022-09-03T09:38:09;38.40;26.90
37232;DHT22;23125;48.156;15.954;2022-09-03T09:40:38;38.30;27.20
37232;DHT22;23125;48.156;15.954;2022-09-03T09:43:08;38.30;27.40
37232;DHT22;23125;48.156;15.954;2022-09-03T09:45:36;38.30;27.50
37232;DHT22;23125;48.156;15.954;2022-09-03T09:48:10;38.40;27.40
37232;DHT22;23125;48.156;15.954;2022-09-03T09:50:39;38.30;27.40
37232;DHT22;23125;48.156;15.954;2022-09-03T09:53:09;38.40;27.60
37232;DHT22;23125;48.156;15.954;2022-09-03T09:55:54;38.30;27.40
37232;DHT22;23125;48.156;15.954;2022-09-03T09:58:25;38.40;27.50
37232;DHT22;23125;48.156;15.954;2022-09-03T10:03:21;38.50;27.50
37232;DHT22;23125;48.156;15.954;2022-09-03T10:06:02;38.60;27.50
37232;DHT22;23125;48.156;15.954;2022-09-03T10:08:48;38.60;27.40
37232;DHT22;23125;48.156;15.954;2022-09-03T10:11:16;38.70;27.30
37232;DHT22;23125;48.156;15.954;2022-09-03T10:13:45;38.70;27.20
37232;DHT22;23125;48.156;15.954;2022-09-03T10:16:26;38.50;26.90
37232;DHT22;23125;48.156;15.954;2022-09-03T10:24:23;38.00;26.80
37232;DHT22;23125;48.156;15.954;2022-09-03T10:26:51;38.00;27.10
37232;DHT22;23125;48.156;15.954;2022-09-03T10:29:22;37.80;27.10
37232;DHT22;23125;48.156;15.954;2022-09-03T10:31:59;37.60;27.10
37232;DHT22;23125;48.156;15.954;2022-09-03T10:37:21;37.30;27.50
37232;DHT22;23125;48.156;15.954;2022-09-03T10:51:26;36.10;27.90
37232;DHT22;23125;48.156;15.954;2022-09-03T10:59:31;35.10;28.60
37232;DHT22;23125;48.156;15.954;2022-09-03T11:05:08;34.30;28.70
37232;DHT22;23125;48.156;15.954;2022-09-03T11:08:04;33.90;29.20
37232;DHT22;23125;48.156;15.954;2022-09-03T11:10:44;33.60;29.70
37232;DHT22;23125;48.156;15.954;2022-09-03T11:13:25;33.30;29.80
37232;DHT22;23125;48.156;15.954;2022-09-03T11:16:00;33.10;30.00
37232;DHT22;23125;48.156;15.954;2022-09-03T11:18:30;32.80;30.10
37232;DHT22;23125;48.156;15.954;2022-09-03T11:21:02;32.60;30.70
37232;DHT22;23125;48.156;15.954;2022-09-03T11:23:32;32.40;30.90
37232;DHT22;23125;48.156;15.954;2022-09-03T11:26:05;32.20;31.10
37232;DHT22;23125;48.156;15.954;2022-09-03T11:28:56;32.10;31.20
37232;DHT22;23125;48.156;15.954;2022-09-03T11:31:48;31.90;31.40
37232;DHT22;23125;48.156;15.954;2022-09-03T11:34:31;31.70;31.50
37232;DHT22;23125;48.156;15.954;2022-09-03T11:37:28;31.50;31.50
37232;DHT22;23125;48.156;15.954;2022-09-03T11:42:34;31.20;32.30
37232;DHT22;23125;48.156;15.954;2022-09-03T11:45:19;31.10;32.70
37232;DHT22;23125;48.156;15.954;2022-09-03T11:47:46;30.90;32.60
37232;DHT22;23125;48.156;15.954;2022-09-03T11:50:27;30.80;32.80
37232;DHT22;23125;48.156;15.954;2022-09-03T11:53:20;30.70;33.10
37232;DHT22;23125;48.156;15.954;2022-09-03T11:55:57;30.60;33.30
37232;DHT22;23125;48.156;15.954;2022-09-03T11:58:27;30.60;33.40
37232;DHT22;23125;48.156;15.954;2022-09-03T12:00:55;30.50;33.60
37232;DHT22;23125;48.156;15.954;2022-09-03T12:03:27;30.50;33.90
37232;DHT22;23125;48.156;15.954;2022-09-03T12:11:40;30.40;34.70
37232;DHT22;23125;48.156;15.954;2022-09-03T12:14:37;30.50;34.70
37232;DHT22;23125;48.156;15.954;2022-09-03T12:20:36;30.50;34.90
37232;DHT22;23125;48.156;15.954;2022-09-03T12:23:02;30.50;35.00
37232;DHT22;23125;48.156;15.954;2022-09-03T12:25:28;30.60;35.00
37232;DHT22;23125;48.156;15.954;2022-09-03T12:27:54;30.50;34.80
37232;DHT22;23125;48.156;15.954;2022-09-03T12:30:23;30.50;34.80
37232;DHT22;23125;48.156;15.954;2022-09-03T12:32:50;30.50;35.00
37232;DHT22;23125;48.156;15.954;2022-09-03T12:35:29;30.50;34.80
37232;DHT22;23125;48.156;15.954;2022-09-03T12:37:55;30.50;35.00
37232;DHT22;23125;48.156;15.954;2022-09-03T12:40:26;30.50;35.20
37232;DHT22;23125;48.156;15.954;2022-09-03T12:42:53;30.40;35.10
37232;DHT22;23125;48.156;15.954;2022-09-03T12:45:22;30.40;35.40
37232;DHT22;23125;48.156;15.954;2022-09-03T12:47:49;30.30;35.20
37232;DHT22;23125;48.156;15.954;2022-09-03T12:50:20;30.30;35.30
37232;DHT22;23125;48.156;15.954;2022-09-03T12:52:56;30.30;35.20
37232;DHT22;23125;48.156;15.954;2022-09-03T12:55:41;30.20;35.30
37232;DHT22;23125;48.156;15.954;2022-09-03T12:58:18;30.10;35.20
37232;DHT22;23125;48.156;15.954;2022-09-03T13:00:51;30.00;35.10
37232;DHT22;23125;48.156;15.954;2022-09-03T13:03:27;29.90;35.80
37232;DHT22;23125;48.156;15.954;2022-09-03T13:05:58;29.90;36.60
37232;DHT22;23125;48.156;15.954;2022-09-03T13:08:31;29.90;36.50
37232;DHT22;23125;48.156;15.954;2022-09-03T13:10:59;29.90;36.40
37232;DHT22;23125;48.156;15.954;2022-09-03T13:13:28;29.90;37.00
37232;DHT22;23125;48.156;15.954;2022-09-03T13:21:20;30.00;37.20
37232;DHT22;23125;48.156;15.954;2022-09-03T13:26:34;30.00;37.40
37232;DHT22;23125;48.156;15.954;2022-09-03T13:29:21;30.10;37.50
37232;DHT22;23125;48.156;15.954;2022-09-03T13:31:57;30.10;37.20
37232;DHT22;23125;48.156;15.954;2022-09-03T13:34:41;30.10;37.10
37232;DHT22;23125;48.156;15.954;2022-09-03T13:39:51;30.10;37.40
37232;DHT22;23125;48.156;15.954;2022-09-03T13:42:39;30.10;37.40
37232;DHT22;23125;48.156;15.954;2022-09-03T13:45:24;30.10;37.50
37232;DHT22;23125;48.156;15.954;2022-09-03T13:51:21;30.20;37.50
37232;DHT22;23125;48.156;15.954;2022-09-03T13:54:04;30.20;37.50
37232;DHT22;23125;48.156;15.954;2022-09-03T13:56:52;30.20;37.50
37232;DHT22;23125;48.156;15.954;2022-09-03T13:59:45;30.20;37.50
37232;DHT22;23125;48.156;15.954;2022-09-03T14:05:12;30.20;37.10
37232;DHT22;23125;48.156;15.954;2022-09-03T14:12:43;30.10;36.90
37232;DHT22;23125;48.156;15.954;2022-09-03T14:15:32;30.00;36.80
37232;DHT22;23125;48.156;15.954;2022-09-03T14:18:14;30.00;36.90
37232;DHT22;23125;48.156;15.954;2022-09-03T14:20:57;30.00;37.10
37232;DHT22;23125;48.156;15.954;2022-09-03T14:26:36;30.00;37.40
37232;DHT22;23125;48.156;15.954;2022-09-03T14:29:03;30.00;37.30
37232;DHT22;23125;48.156;15.954;2022-09-03T14:42:23;29.80;37.20
37232;DHT22;23125;48.156;15.954;2022-09-03T14:50:51;29.70;37.10
37232;DHT22;23125;48.156;15.954;2022-09-03T15:01:35;29.50;37.00
37232;DHT22;23125;48.156;15.954;2022-09-03T15:09:36;29.50;37.40
37232;DHT22;23125;48.156;15.954;2022-09-03T15:12:09;29.40;37.30
37232;DHT22;23125;48.156;15.954;2022-09-03T15:14:49;29.40;37.40
37232;DHT22;23125;48.156;15.954;2022-09-03T15:20:08;29.40;37.30
37232;DHT22;23125;48.156;15.954;2022-09-03T15:31:09;29.20;37.50
37232;DHT22;23125;48.156;15.954;2022-09-03T15:33:46;29.20;37.90
37232;DHT22;23125;48.156;15.954;2022-09-03T15:36:25;29.10;37.70
37232;DHT22;23125;48.156;15.954;2022-09-03T15:39:03;29.00;37.90
37232;DHT22;23125;48.156;15.954;2022-09-03T15:44:00;29.00;37.90
37232;DHT22;23125;48.156;15.954;2022-09-03T15:49:57;29.00;38.20
37232;DHT22;23125;48.156;15.954;2022-09-03T15:55:24;29.00;38.40
37232;DHT22;23125;48.156;15.954;2022-09-03T16:03:11;28.90;38.60
37232;DHT22;23125;48.156;15.954;2022-09-03T16:19:40;28.70;39.60
37232;DHT22;23125;48.156;15.954;2022-09-03T16:25:31;28.60;40.10
37232;DHT22;23125;48.156;15.954;2022-09-03T16:28:08;28.60;40.40
37232;DHT22;23125;48.156;15.954;2022-09-03T16:39:51;28.40;41.30
37232;DHT22;23125;48.156;15.954;2022-09-03T16:45:37;28.30;41.90
37232;DHT22;23125;48.156;15.954;2022-09-03T16:48:29;28.30;42.30
37232;DHT22;23125;48.156;15.954;2022-09-03T16:56:42;28.10;42.80
37232;DHT22;23125;48.156;15.954;2022-09-03T17:02:14;28.00;43.30
37232;DHT22;23125;48.156;15.954;2022-09-03T17:05:15;27.90;43.40
37232;DHT22;23125;48.156;15.954;2022-09-03T17:07:56;27.90;43.50
37232;DHT22;23125;48.156;15.954;2022-09-03T17:13:45;27.70;44.00
37232;DHT22;23125;48.156;15.954;2022-09-03T17:16:35;27.70;44.10
37232;DHT22;23125;48.156;15.954;2022-09-03T17:19:23;27.60;44.30
37232;DHT22;23125;48.156;15.954;2022-09-03T17:24:41;27.50;44.50
37232;DHT22;23125;48.156;15.954;2022-09-03T17:29:58;27.40;44.90
37232;DHT22;23125;48.156;15.954;2022-09-03T17:35:10;27.30;45.30
37232;DHT22;23125;48.156;15.954;2022-09-03T17:37:47;27.20;45.30
37232;DHT22;23125;48.156;15.954;2022-09-03T17:43:23;27.10;45.40
37232;DHT22;23125;48.156;15.954;2022-09-03T17:49:02;27.00;45.80
37232;DHT22;23125;48.156;15.954;2022-09-03T17:51:45;26.90;46.00
37232;DHT22;23125;48.156;15.954;2022-09-03T17:57:17;26.70;46.10
37232;DHT22;23125;48.156;15.954;2022-09-03T18:05:28;26.60;46.70
37232;DHT22;23125;48.156;15.954;2022-09-03T18:08:06;26.50;46.80
37232;DHT22;23125;48.156;15.954;2022-09-03T18:10:43;26.50;47.00
37232;DHT22;23125;48.156;15.954;2022-09-03T18:13:26;26.40;47.20
37232;DHT22;23125;48.156;15.954;2022-09-03T18:18:46;26.30;47.40
37232;DHT22;23125;48.156;15.954;2022-09-03T18:21:23;26.30;47.60
37232;DHT22;23125;48.156;15.954;2022-09-03T18:27:00;26.20;47.80
37232;DHT22;23125;48.156;15.954;2022-09-03T18:32:43;26.10;48.00
37232;DHT22;23125;48.156;15.954;2022-09-03T18:35:30;26.00;48.10
37232;DHT22;23125;48.156;15.954;2022-09-03T18:38:20;25.90;48.20
37232;DHT22;23125;48.156;15.954;2022-09-03T18:47:39;25.80;48.60
37232;DHT22;23125;48.156;15.954;2022-09-03T18:53:47;25.60;48.80
37232;DHT22;23125;48.156;15.954;2022-09-03T18:56:47;25.50;48.80
37232;DHT22;23125;48.156;15.954;2022-09-03T19:15:19;25.10;49.30
37232;DHT22;23125;48.156;15.954;2022-09-03T19:24:25;24.90;49.60
37232;DHT22;23125;48.156;15.954;2022-09-03T19:27:41;24.70;49.60
37232;DHT22;23125;48.156;15.954;2022-09-03T19:36:43;24.40;50.10
37232;DHT22;23125;48.156;15.954;2022-09-03T19:40:29;24.30;50.20
37232;DHT22;23125;48.156;15.954;2022-09-03T19:53:00;24.00;50.90
37232;DHT22;23125;48.156;15.954;2022-09-03T19:55:52;23.90;50.90
37232;DHT22;23125;48.156;15.954;2022-09-03T19:58:44;23.90;51.00
37232;DHT22;23125;48.156;15.954;2022-09-03T20:01:36;23.80;51.10
37232;DHT22;23125;48.156;15.954;2022-09-03T20:04:48;23.80;51.10
37232;DHT22;23125;48.156;15.954;2022-09-03T20:07:31;23.70;51.20
37232;DHT22;23125;48.156;15.954;2022-09-03T20:10:17;23.60;51.30
37232;DHT22;23125;48.156;15.954;2022-09-03T20:15:22;23.50;51.50
37232;DHT22;23125;48.156;15.954;2022-09-03T20:18:07;23.50;51.70
37232;DHT22;23125;48.156;15.954;2022-09-03T20:26:18;23.30;51.80
37232;DHT22;23125;48.156;15.954;2022-09-03T20:31:35;23.10;52.20
37232;DHT22;23125;48.156;15.954;2022-09-03T20:39:44;22.90;52.40
37232;DHT22;23125;48.156;15.954;2022-09-03T20:45:12;22.90;52.70
37232;DHT22;23125;48.156;15.954;2022-09-03T20:55:45;22.80;53.10
37232;DHT22;23125;48.156;15.954;2022-09-03T20:58:19;22.80;53.10
37232;DHT22;23125;48.156;15.954;2022-09-03T21:01:04;22.80;53.20
37232;DHT22;23125;48.156;15.954;2022-09-03T21:06:54;22.70;53.40
37232;DHT22;23125;48.156;15.954;2022-09-03T21:15:13;22.60;53.70
37232;DHT22;23125;48.156;15.954;2022-09-03T21:25:36;22.60;54.20
37232;DHT22;23125;48.156;15.954;2022-09-03T21:28:13;22.60;54.40
37232;DHT22;23125;48.156;15.954;2022-09-03T21:30:44;22.60;54.60
37232;DHT22;23125;48.156;15.954;2022-09-03T21:33:19;22.70;54.60
37232;DHT22;23125;48.156;15.954;2022-09-03T21:38:38;22.60;54.70
37232;DHT22;23125;48.156;15.954;2022-09-03T21:41:30;22.70;54.80
37232;DHT22;23125;48.156;15.954;2022-09-03T21:44:14;22.70;54.80
37232;DHT22;23125;48.156;15.954;2022-09-03T21:49:35;22.70;55.00
37232;DHT22;23125;48.156;15.954;2022-09-03T21:52:10;22.70;55.00
37232;DHT22;23125;48.156;15.954;2022-09-03T21:54:37;22.70;55.20
37232;DHT22;23125;48.156;15.954;2022-09-03T21:57:11;22.70;55.20
37232;DHT22;23125;48.156;15.954;2022-09-03T22:02:26;22.70;55.30
37232;DHT22;23125;48.156;15.954;2022-09-03T22:04:54;22.70;55.40
37232;DHT22;23125;48.156;15.954;2022-09-03T22:07:34;22.70;55.40
37232;DHT22;23125;48.156;15.954;2022-09-03T22:15:20;22.60;55.80
37232;DHT22;23125;48.156;15.954;2022-09-03T22:18:00;22.60;55.80
37232;DHT22;23125;48.156;15.954;2022-09-03T22:20:27;22.60;56.00
37232;DHT22;23125;48.156;15.954;2022-09-03T22:22:58;22.70;56.00